ADDS METAR Data

Data at: 0511 UTC 19 Jan 2018

METAR for:KORH (Worcester Muni, MA, US)
Text:KORH 190454Z 27011KT 10SM CLR M09/M12 A2989 RMK AO2 SLP141 T10891117 410391111
Temperature: -8.9°C ( 16°F)
Dewpoint:-11.7°C ( 11°F) [RH = 80%]
Pressure (altimeter):29.89 inches Hg (1012.3 mb) [Sea level pressure: 1014.1 mb]
Winds:from the W (270 degrees) at 13 MPH (11 knots; 5.7 m/s)
Visibility:10 or more sm (16+ km)
Ceiling:at least 12,000 feet AGL
Clouds:sky clear below 12,000 feet AGL